createdAt,value
2018-05-06T00:00:47.793Z,99167.72
2018-05-06T00:03:15.281Z,99165.01
2018-05-06T00:05:42.827Z,99165.16
2018-05-06T00:08:10.632Z,99171.05
2018-05-06T00:10:38.075Z,99174.75
2018-05-06T00:13:06.488Z,99171.64
2018-05-06T00:15:33.880Z,99174.08
2018-05-06T00:18:04.844Z,99179.80
2018-05-06T00:20:32.237Z,99172.31
2018-05-06T00:22:59.862Z,99178.16
2018-05-06T00:25:27.251Z,99170.72
2018-05-06T00:27:54.654Z,99174.24
2018-05-06T00:30:22.051Z,99173.62
2018-05-06T00:32:49.439Z,99169.01
2018-05-06T00:35:17.197Z,99168.04
2018-05-06T00:37:44.571Z,99172.85
2018-05-06T00:40:12.300Z,99170.94
2018-05-06T00:42:39.696Z,99178.95
2018-05-06T00:45:07.924Z,99182.95
2018-05-06T00:47:35.327Z,99179.77
2018-05-06T00:50:02.733Z,99177.11
2018-05-06T00:52:30.376Z,99175.38
2018-05-06T00:54:57.767Z,99178.56
2018-05-06T00:57:25.147Z,99183.86
2018-05-06T00:59:53.478Z,99185.91
2018-05-06T01:02:20.860Z,99184.36
2018-05-06T01:04:48.247Z,99187.86
2018-05-06T01:07:16.319Z,99189.34
2018-05-06T01:09:43.719Z,99187.31
2018-05-06T01:12:11.124Z,99188.56
2018-05-06T01:14:39.263Z,99191.33
2018-05-06T01:17:06.651Z,99189.52
2018-05-06T01:19:34.121Z,99192.00
2018-05-06T01:22:01.885Z,99192.20
2018-05-06T01:24:29.267Z,99207.17
2018-05-06T01:26:56.665Z,99205.36
2018-05-06T01:29:24.040Z,99205.56
2018-05-06T01:31:51.445Z,99203.93
2018-05-06T01:34:19.761Z,99207.76
2018-05-06T01:36:47.160Z,99208.15
2018-05-06T01:39:14.540Z,99212.03
2018-05-06T01:41:41.940Z,99225.06
2018-05-06T01:44:09.402Z,99222.33
2018-05-06T01:46:36.805Z,99221.09
2018-05-06T01:49:05.155Z,99227.44
2018-05-06T01:51:32.814Z,99224.36
2018-05-06T01:54:00.261Z,99224.66
2018-05-06T01:56:27.663Z,99225.88
2018-05-06T01:58:55.552Z,99222.58
2018-05-06T02:01:22.953Z,99224.51
2018-05-06T02:03:50.345Z,99222.47
2018-05-06T02:06:17.858Z,99224.64
2018-05-06T02:08:45.244Z,99222.61
2018-05-06T02:11:12.636Z,99229.73
2018-05-06T02:13:40.550Z,99236.11
2018-05-06T02:16:07.948Z,99230.44
2018-05-06T02:18:35.764Z,99233.41
2018-05-06T02:21:04.073Z,99234.36
2018-05-06T02:23:31.452Z,99233.37
2018-05-06T02:25:58.845Z,99239.97
2018-05-06T02:28:26.239Z,99242.22
2018-05-06T02:30:54.529Z,99236.72
2018-05-06T02:33:23.158Z,99239.20
2018-05-06T02:35:50.563Z,99239.58
2018-05-06T02:38:17.936Z,99238.06
2018-05-06T02:40:46.284Z,99244.61
2018-05-06T02:43:13.675Z,99238.00
2018-05-06T02:45:41.060Z,99241.41
2018-05-06T02:48:09.158Z,99236.13
2018-05-06T02:50:36.528Z,99245.92
2018-05-06T02:53:03.929Z,99241.55
2018-05-06T02:55:31.316Z,99241.34
2018-05-06T02:57:58.718Z,99246.73
2018-05-06T03:00:26.098Z,99245.57
2018-05-06T03:02:53.489Z,99242.46
2018-05-06T03:05:20.875Z,99239.82
2018-05-06T03:07:48.266Z,99243.02
2018-05-06T03:10:15.656Z,99239.74
2018-05-06T03:12:43.039Z,99242.65
2018-05-06T03:15:10.428Z,99246.42
2018-05-06T03:17:37.830Z,99246.37
2018-05-06T03:20:06.340Z,99244.31
2018-05-06T03:25:08.058Z,99239.87
2018-05-06T03:27:35.468Z,99249.75
2018-05-06T03:30:02.857Z,99246.80
2018-05-06T03:32:30.256Z,99254.02
2018-05-06T03:34:58.608Z,99247.89
2018-05-06T03:37:26.016Z,99253.95
2018-05-06T03:39:53.393Z,99253.83
2018-05-06T03:42:20.772Z,99260.87
2018-05-06T03:44:48.615Z,99262.23
2018-05-06T03:47:16.583Z,99272.46
2018-05-06T03:49:45.795Z,99274.94
2018-05-06T03:52:13.184Z,99271.16
2018-05-06T03:54:40.589Z,99263.28
2018-05-06T03:57:20.042Z,99266.77
2018-05-06T04:00:00.101Z,99275.23
2018-05-06T04:02:42.368Z,99276.34
2018-05-06T04:05:10.677Z,99276.37
2018-05-06T04:07:38.046Z,99268.13
2018-05-06T04:10:05.743Z,99265.61
2018-05-06T04:12:33.142Z,99265.70
2018-05-06T04:15:00.555Z,99269.44
2018-05-06T04:17:28.232Z,99264.05
2018-05-06T04:19:55.622Z,99262.69
2018-05-06T04:22:23.008Z,99271.39
2018-05-06T04:24:50.408Z,99268.63
2018-05-06T04:27:18.227Z,99265.51
2018-05-06T04:29:46.439Z,99269.17
2018-05-06T04:32:13.833Z,99265.09
2018-05-06T04:34:41.223Z,99268.15
2018-05-06T04:37:08.611Z,99270.05
2018-05-06T04:39:36.008Z,99269.92
2018-05-06T04:42:03.385Z,99274.86
2018-05-06T04:44:31.397Z,99276.08
2018-05-06T04:46:58.788Z,99275.34
2018-05-06T04:49:26.167Z,99277.53
2018-05-06T04:51:53.721Z,99275.91
2018-05-06T04:54:22.015Z,99275.17
2018-05-06T04:56:49.391Z,99277.88
2018-05-06T04:59:18.295Z,99276.45
2018-05-06T05:01:45.671Z,99269.04
2018-05-06T05:04:13.058Z,99277.23
2018-05-06T05:06:40.499Z,99275.55
2018-05-06T05:09:07.872Z,99275.80
2018-05-06T05:11:35.306Z,99273.58
2018-05-06T05:14:21.611Z,99276.20
2018-05-06T05:16:49.407Z,99275.17
2018-05-06T05:19:16.887Z,99280.44
2018-05-06T05:21:44.295Z,99276.93
2018-05-06T05:24:11.691Z,99274.00
2018-05-06T05:26:39.145Z,99267.36
2018-05-06T05:29:06.574Z,99268.55
2018-05-06T05:31:35.263Z,99276.07
2018-05-06T05:34:02.708Z,99271.87
2018-05-06T05:36:30.154Z,99284.93
2018-05-06T05:38:57.594Z,99273.16
2018-05-06T05:41:25.079Z,99271.13
2018-05-06T05:43:52.554Z,99269.02
2018-05-06T05:46:20.000Z,99275.79
2018-05-06T05:48:47.442Z,99269.87
2018-05-06T05:51:14.835Z,99267.38
2018-05-06T05:53:42.219Z,99268.45
2018-05-06T05:56:09.620Z,99267.58
2018-05-06T05:58:37.341Z,99271.20
2018-05-06T06:01:04.740Z,99275.84
2018-05-06T06:03:32.121Z,99277.23
2018-05-06T06:05:59.513Z,99275.05
2018-05-06T06:08:26.901Z,99280.67
2018-05-06T06:10:54.542Z,99283.14
2018-05-06T06:13:21.920Z,99276.59
2018-05-06T06:15:50.111Z,99272.33
2018-05-06T06:18:17.515Z,99274.36
2018-05-06T06:20:45.032Z,99273.55
2018-05-06T06:23:13.889Z,99270.91
2018-05-06T06:25:42.089Z,99277.05
2018-05-06T06:28:09.517Z,99283.34
2018-05-06T06:30:36.995Z,99285.45
2018-05-06T06:33:04.520Z,99283.00
2018-05-06T06:35:32.828Z,99280.62
2018-05-06T06:38:00.328Z,99286.64
2018-05-06T06:40:27.849Z,99282.80
2018-05-06T06:42:55.935Z,99284.73
2018-05-06T06:45:23.290Z,99286.82
2018-05-06T06:47:51.680Z,99283.70
2018-05-06T06:50:19.134Z,99276.64
2018-05-06T06:52:46.580Z,99285.33
2018-05-06T06:55:14.950Z,99284.33
2018-05-06T06:57:42.513Z,99286.91
2018-05-06T07:00:09.883Z,99291.34
2018-05-06T07:02:39.029Z,99293.41
2018-05-06T07:05:06.434Z,99291.92
2018-05-06T07:07:33.880Z,99297.47
2018-05-06T07:10:01.356Z,99290.61
2018-05-06T07:12:29.169Z,99290.59
2018-05-06T07:14:56.555Z,99292.51
2018-05-06T07:17:24.019Z,99285.94
2018-05-06T07:19:52.603Z,99286.03
2018-05-06T07:22:20.060Z,99278.07
2018-05-06T07:24:47.508Z,99286.94
2018-05-06T07:27:14.897Z,99277.81
2018-05-06T07:29:44.461Z,99270.85
2018-05-06T07:32:11.864Z,99276.05
2018-05-06T07:34:39.245Z,99280.72
2018-05-06T07:37:07.967Z,99280.58
2018-05-06T07:39:35.450Z,99278.16
2018-05-06T07:42:02.906Z,99277.09
2018-05-06T07:44:30.367Z,99280.46
2018-05-06T07:46:57.822Z,99282.89
2018-05-06T07:49:25.966Z,99279.04
2018-05-06T07:51:53.652Z,99279.47
2018-05-06T07:54:21.111Z,99287.96
2018-05-06T07:56:48.569Z,99282.88
2018-05-06T07:59:16.522Z,99282.89
2018-05-06T08:01:43.977Z,99288.49
2018-05-06T08:04:11.466Z,99279.69
2018-05-06T08:06:39.604Z,99283.61
2018-05-06T08:09:06.996Z,99284.47
2018-05-06T08:11:34.383Z,99276.63
2018-05-06T08:14:02.622Z,99274.91
2018-05-06T08:16:30.062Z,99271.75
2018-05-06T08:18:57.444Z,99268.91
2018-05-06T08:21:25.824Z,99263.74
2018-05-06T08:23:53.371Z,99267.38
2018-05-06T08:26:20.856Z,99265.34
2018-05-06T08:28:49.223Z,99262.44
2018-05-06T08:31:16.706Z,99266.27
2018-05-06T08:36:50.802Z,99263.23
2018-05-06T08:39:28.517Z,99257.42
2018-05-06T08:41:57.871Z,99260.75
2018-05-06T08:44:25.601Z,99263.49
2018-05-06T08:46:53.009Z,99260.29
2018-05-06T08:49:20.616Z,99261.41
2018-05-06T08:51:49.476Z,99261.39
2018-05-06T08:54:17.328Z,99261.41
2018-05-06T08:56:44.714Z,99256.81
2018-05-06T08:59:12.100Z,99256.83
2018-05-06T09:01:39.498Z,99258.34
2018-05-06T09:04:07.806Z,99253.77
2018-05-06T09:06:35.171Z,99260.48
2018-05-06T09:09:02.559Z,99252.18
2018-05-06T09:11:29.956Z,99253.67
2018-05-06T09:13:58.254Z,99258.51
2018-05-06T09:16:25.652Z,99256.34
2018-05-06T09:18:53.423Z,99253.05
2018-05-06T09:21:20.811Z,99251.75
2018-05-06T09:23:48.798Z,99253.19
2018-05-06T09:26:16.163Z,99247.92
2018-05-06T09:28:43.571Z,99251.33
2018-05-06T09:31:11.167Z,99245.33
2018-05-06T09:33:38.550Z,99242.23
2018-05-06T09:36:06.244Z,99232.58
2018-05-06T09:38:34.281Z,99240.00
2018-05-06T09:41:01.674Z,99236.14
2018-05-06T09:43:33.179Z,99234.66
2018-05-06T09:46:00.586Z,99238.97
2018-05-06T09:48:27.971Z,99242.86
2018-05-06T09:50:55.359Z,99242.70
2018-05-06T09:53:22.755Z,99234.08
2018-05-06T09:55:50.155Z,99232.95
2018-05-06T09:58:17.893Z,99233.84
2018-05-06T10:00:45.274Z,99223.13
2018-05-06T10:03:12.656Z,99225.66
2018-05-06T10:05:40.971Z,99229.39
2018-05-06T10:08:09.257Z,99224.70
2018-05-06T10:10:37.167Z,99212.49
2018-05-06T10:13:04.560Z,99212.04
2018-05-06T10:15:31.967Z,99217.91
2018-05-06T10:17:59.342Z,99209.60
2018-05-06T10:20:26.750Z,99211.91
2018-05-06T10:22:55.273Z,99207.55
2018-05-06T10:25:22.669Z,99194.58
2018-05-06T10:27:50.072Z,99191.30
2018-05-06T10:30:17.543Z,99199.17
2018-05-06T10:32:44.935Z,99191.92
2018-05-06T10:35:12.610Z,99184.09
2018-05-06T10:37:39.996Z,99177.84
2018-05-06T10:40:07.416Z,99184.19
2018-05-06T10:42:34.872Z,99178.22
2018-05-06T10:45:02.258Z,99172.34
2018-05-06T10:47:30.412Z,99179.41
2018-05-06T10:49:57.795Z,99182.22
2018-05-06T10:52:25.184Z,99176.09
2018-05-06T10:55:01.465Z,99183.16
2018-05-06T10:57:30.189Z,99174.58
2018-05-06T10:59:58.662Z,99160.55
2018-05-06T11:02:27.244Z,99167.28
2018-05-06T11:04:54.640Z,99160.34
2018-05-06T11:07:22.037Z,99155.33
2018-05-06T11:09:49.505Z,99149.99
2018-05-06T11:12:18.226Z,99146.76
2018-05-06T11:14:46.319Z,99145.00
2018-05-06T11:17:13.724Z,99142.68
2018-05-06T11:19:41.124Z,99150.61
2018-05-06T11:22:08.527Z,99148.13
2018-05-06T11:24:35.920Z,99144.38
2018-05-06T11:27:03.359Z,99137.45
2018-05-06T11:29:31.085Z,99143.78
2018-05-06T11:31:58.539Z,99140.47
2018-05-06T11:34:25.927Z,99136.47
2018-05-06T11:36:53.351Z,99140.33
2018-05-06T11:39:20.797Z,99133.95
2018-05-06T11:41:48.180Z,99130.95
2018-05-06T11:44:15.577Z,99134.88
2018-05-06T11:46:42.963Z,99126.95
2018-05-06T11:49:10.380Z,99120.44
2018-05-06T11:51:38.676Z,99120.64
2018-05-06T11:54:06.071Z,99127.75
2018-05-06T11:56:33.505Z,99129.52
2018-05-06T11:59:00.972Z,99113.62
2018-05-06T12:01:28.634Z,99112.77
2018-05-06T12:03:56.244Z,99110.91
2018-05-06T12:06:23.632Z,99113.94
2018-05-06T12:08:51.062Z,99113.03
2018-05-06T12:11:18.483Z,99111.33
2018-05-06T12:13:45.875Z,99099.73
2018-05-06T12:16:14.152Z,99095.18
2018-05-06T12:18:41.556Z,99089.14
2018-05-06T12:21:08.939Z,99098.23
2018-05-06T12:23:36.338Z,99092.81
2018-05-06T12:26:03.990Z,99087.77
2018-05-06T12:28:31.750Z,99092.74
2018-05-06T12:30:59.152Z,99088.77
2018-05-06T12:33:26.539Z,99080.05
2018-05-06T12:35:53.930Z,99085.19
2018-05-06T12:38:21.327Z,99079.88
2018-05-06T12:40:48.709Z,99083.62
2018-05-06T12:43:16.193Z,99081.52
2018-05-06T12:45:43.699Z,99071.95
2018-05-06T12:48:11.090Z,99075.46
2018-05-06T12:50:38.496Z,99071.17
2018-05-06T12:53:06.002Z,99072.66
2018-05-06T12:55:34.364Z,99076.77
2018-05-06T12:58:01.816Z,99068.08
2018-05-06T13:00:29.251Z,99072.12
2018-05-06T13:02:56.715Z,99063.77
2018-05-06T13:05:24.164Z,99063.37
2018-05-06T13:07:52.033Z,99068.14
2018-05-06T13:10:20.423Z,99055.53
2018-05-06T13:12:47.796Z,99051.14
2018-05-06T13:15:15.428Z,99059.27
2018-05-06T13:17:42.820Z,99059.12
2018-05-06T13:20:10.251Z,99057.34
2018-05-06T13:22:38.836Z,99044.34
2018-05-06T13:25:06.301Z,99053.30
2018-05-06T13:27:33.744Z,99045.73
2018-05-06T13:30:01.217Z,99047.11
2018-05-06T13:32:28.688Z,99051.98
2018-05-06T13:34:56.811Z,99043.66
2018-05-06T13:37:24.775Z,99043.06
2018-05-06T13:39:52.179Z,99037.46
2018-05-06T13:42:19.707Z,99042.37
2018-05-06T13:44:47.104Z,99036.95
2018-05-06T13:47:14.854Z,99039.52
2018-05-06T13:49:42.264Z,99036.03
2018-05-06T13:52:09.669Z,99030.03
2018-05-06T13:54:37.064Z,99033.02
2018-05-06T13:57:05.321Z,99027.94
2018-05-06T13:59:32.708Z,99029.23
2018-05-06T14:02:00.093Z,99024.39
2018-05-06T14:04:27.478Z,99016.50
2018-05-06T14:06:54.923Z,99023.44
2018-05-06T14:09:23.495Z,99015.05
2018-05-06T22:02:37.772Z,99025.58
2018-05-06T22:05:05.177Z,99029.61
2018-05-06T22:07:32.613Z,99027.74
2018-05-06T22:09:59.955Z,99027.38
2018-05-06T22:12:27.326Z,99023.61
2018-05-06T22:14:55.250Z,99030.51
2018-05-06T22:17:22.633Z,99023.13
2018-05-06T22:19:50.028Z,99021.69
2018-05-06T22:22:17.446Z,99027.80
2018-05-06T22:24:44.807Z,99022.56
2018-05-06T22:27:12.196Z,99020.34
2018-05-06T22:29:39.587Z,99022.56
2018-05-06T22:32:06.990Z,99023.55
2018-05-06T22:34:34.412Z,99028.85
2018-05-06T22:37:01.792Z,99026.03
2018-05-06T22:39:29.960Z,99029.19
2018-05-06T22:41:57.347Z,99037.84
2018-05-06T22:44:24.740Z,99030.53
2018-05-06T22:46:52.123Z,99031.44
2018-05-06T22:49:19.506Z,99030.70
2018-05-06T22:51:46.930Z,99025.19
2018-05-06T22:54:14.286Z,99034.36
2018-05-06T22:56:41.677Z,99027.95
2018-05-06T22:59:09.064Z,99030.01
2018-05-06T23:01:36.455Z,99032.31
2018-05-06T23:04:03.839Z,99034.39
2018-05-06T23:06:31.231Z,99034.55
2018-05-06T23:08:58.623Z,99034.16
2018-05-06T23:11:26.026Z,99037.38
2018-05-06T23:13:53.403Z,99031.09
2018-05-06T23:16:20.862Z,99029.30
2018-05-06T23:18:48.195Z,99028.63
2018-05-06T23:21:15.591Z,99026.66
2018-05-06T23:23:42.992Z,99021.59
2018-05-06T23:26:10.371Z,99020.56
2018-05-06T23:28:37.757Z,99020.65
2018-05-06T23:31:05.143Z,99011.47
2018-05-06T23:33:32.537Z,99017.33
2018-05-06T23:35:59.922Z,99014.87
2018-05-06T23:38:28.128Z,99012.66
2018-05-06T23:40:55.528Z,99002.27
2018-05-06T23:43:22.925Z,99006.67
2018-05-06T23:45:50.317Z,99001.32
2018-05-06T23:48:17.700Z,99003.63
2018-05-06T23:50:45.100Z,98994.36
2018-05-06T23:53:12.489Z,99002.53
2018-05-06T23:55:39.906Z,99008.70
2018-05-06T23:58:07.268Z,98999.56
